createdAt,value
2022-08-26T00:00:59.693Z,20.83
2022-08-26T00:06:31.518Z,20.78
2022-08-26T00:12:03.137Z,20.72
2022-08-26T00:17:35.137Z,20.67
2022-08-26T00:23:07.168Z,20.61
2022-08-26T00:28:38.981Z,20.55
2022-08-26T00:34:11.425Z,20.49
2022-08-26T00:39:42.960Z,20.41
2022-08-26T00:45:14.515Z,20.34
2022-08-26T00:50:46.375Z,20.29
2022-08-26T00:56:18.230Z,20.24
2022-08-26T01:01:49.922Z,20.18
2022-08-26T01:07:22.207Z,20.13
2022-08-26T01:12:54.402Z,20.08
2022-08-26T01:18:26.305Z,20.01
2022-08-26T01:29:27.538Z,19.86
2022-08-26T01:34:59.125Z,19.75
2022-08-26T01:51:34.535Z,19.64
2022-08-26T01:57:06.265Z,19.62
2022-08-26T02:02:38.196Z,19.60
2022-08-26T02:08:09.843Z,19.59
2022-08-26T02:19:17.102Z,19.55
2022-08-26T02:24:44.603Z,19.51
2022-08-26T02:30:17.208Z,19.47
2022-08-26T02:35:49.167Z,19.44
2022-08-26T02:46:50.969Z,19.37
2022-08-26T02:52:22.762Z,19.35
2022-08-26T02:57:54.257Z,19.33
2022-08-26T03:03:26.289Z,19.32
2022-08-26T03:08:58.238Z,19.33
2022-08-26T03:25:33.428Z,19.35
2022-08-26T03:31:05.355Z,19.36
2022-08-26T03:36:36.940Z,19.37
2022-08-26T03:47:40.850Z,19.40
2022-08-26T03:53:15.026Z,19.40
2022-08-26T03:58:46.830Z,19.39
2022-08-26T04:09:50.037Z,19.36
2022-08-26T04:15:23.544Z,19.34
2022-08-26T04:20:55.364Z,19.30
2022-08-26T04:26:27.003Z,19.24
2022-08-26T04:31:59.416Z,19.19
2022-08-26T04:37:31.126Z,19.17
2022-08-26T04:43:02.987Z,19.17
2022-08-26T04:48:34.968Z,19.14
2022-08-26T04:54:06.877Z,19.11
2022-08-26T04:59:39.542Z,19.14
2022-08-26T05:05:10.939Z,19.24
2022-08-26T05:10:42.763Z,19.38
2022-08-26T05:16:14.432Z,19.54
2022-08-26T05:21:46.139Z,19.69
2022-08-26T05:27:18.095Z,19.84
2022-08-26T05:32:54.799Z,20.02
2022-08-26T05:38:22.239Z,20.21
2022-08-26T05:43:54.166Z,20.36
2022-08-26T05:54:58.042Z,20.86
2022-08-26T06:00:29.936Z,21.31
2022-08-26T06:06:01.739Z,21.84
2022-08-26T06:11:35.365Z,22.44
2022-08-26T06:17:07.347Z,23.14
2022-08-26T06:28:11.387Z,24.43
2022-08-26T06:33:43.835Z,24.64
2022-08-26T06:50:16.842Z,24.33
2022-08-26T06:55:49.050Z,24.16
2022-08-26T07:01:21.038Z,24.01
2022-08-26T07:12:27.955Z,23.92
2022-08-26T07:18:02.577Z,24.00
2022-08-26T07:23:34.898Z,24.30
2022-08-26T07:29:07.088Z,24.82
2022-08-26T07:34:38.952Z,25.30
2022-08-26T07:40:10.904Z,25.58
2022-08-26T07:45:43.108Z,25.73
2022-08-26T07:51:14.854Z,25.73
2022-08-26T07:56:46.640Z,25.67
2022-08-26T08:02:20.366Z,25.56
2022-08-26T08:07:53.561Z,25.44
2022-08-26T08:13:24.120Z,25.38
2022-08-26T08:18:55.399Z,25.34
2022-08-26T08:24:27.111Z,25.31
2022-08-26T08:29:58.837Z,25.26
2022-08-26T08:35:30.750Z,25.18
2022-08-26T08:46:34.230Z,25.07
2022-08-26T08:52:06.220Z,25.10
2022-08-26T08:57:37.756Z,25.17
2022-08-26T09:03:09.795Z,25.28
2022-08-26T09:08:41.551Z,25.45
2022-08-26T09:14:13.412Z,25.70
2022-08-26T09:19:45.330Z,26.09
2022-08-26T09:25:16.879Z,26.57
2022-08-26T09:30:48.715Z,26.98
2022-08-26T09:36:20.611Z,27.30
2022-08-26T09:41:52.762Z,27.57
2022-08-26T09:47:24.741Z,27.81
2022-08-26T09:52:56.536Z,27.87
2022-08-26T09:58:28.292Z,27.96
2022-08-26T10:04:00.397Z,28.21
2022-08-26T10:09:32.390Z,28.56
2022-08-26T10:15:05.862Z,28.82
2022-08-26T10:20:38.068Z,28.86
2022-08-26T10:26:09.663Z,28.82
2022-08-26T10:31:41.451Z,28.81
2022-08-26T10:42:45.314Z,29.02
2022-08-26T10:48:17.355Z,29.35
2022-08-26T10:53:51.383Z,29.68
2022-08-26T11:04:53.045Z,30.12
2022-08-26T11:10:25.019Z,30.25
2022-08-26T11:15:56.780Z,30.45
2022-08-26T11:18:08.810Z,30.50
2022-08-26T11:23:41.646Z,30.75
2022-08-26T11:29:13.639Z,30.97
2022-08-26T11:34:44.403Z,31.20
2022-08-26T11:40:16.193Z,31.33
2022-08-26T11:45:48.164Z,31.39
2022-08-26T11:51:20.415Z,31.26
2022-08-26T11:56:52.270Z,31.17
2022-08-26T12:02:24.234Z,31.32
2022-08-26T12:07:56.048Z,31.53
2022-08-26T12:13:27.964Z,31.68
2022-08-26T12:18:59.566Z,31.82
2022-08-26T12:24:31.209Z,31.98
2022-08-26T12:30:02.968Z,32.02
2022-08-26T12:35:34.304Z,31.91
2022-08-26T12:41:05.701Z,31.71
2022-08-26T12:46:37.472Z,31.41
2022-08-26T12:52:09.319Z,31.01
2022-08-26T12:57:41.147Z,30.79
2022-08-26T13:03:12.969Z,30.83
2022-08-26T13:08:45.352Z,30.95
2022-08-26T13:14:21.254Z,31.04
2022-08-26T13:19:48.798Z,31.09
2022-08-26T13:25:20.672Z,31.16
2022-08-26T13:30:52.492Z,31.30
2022-08-26T13:36:24.300Z,31.37
2022-08-26T13:41:56.295Z,31.32
2022-08-26T13:47:27.977Z,31.33
2022-08-26T13:52:59.543Z,31.45
2022-08-26T13:58:31.358Z,31.36
2022-08-26T14:04:02.699Z,31.17
2022-08-26T14:09:38.403Z,31.14
2022-08-26T14:15:07.226Z,31.07
2022-08-26T14:26:10.375Z,30.74
2022-08-26T14:31:42.013Z,30.51
2022-08-26T14:42:47.885Z,30.07
2022-08-26T14:53:47.761Z,29.75
2022-08-26T14:59:18.946Z,29.50
2022-08-26T15:04:50.316Z,29.33
2022-08-26T15:10:21.787Z,29.13
2022-08-26T15:15:53.620Z,28.89
2022-08-26T15:21:25.339Z,28.71
2022-08-26T15:26:56.742Z,28.60
2022-08-26T15:32:28.650Z,28.60
2022-08-26T15:38:00.427Z,28.62
2022-08-26T15:49:03.524Z,28.52
2022-08-26T15:54:35.761Z,28.46
2022-08-26T16:00:07.415Z,28.46
2022-08-26T16:05:39.246Z,28.42
2022-08-26T16:11:10.832Z,28.39
2022-08-26T16:16:44.121Z,28.38
2022-08-26T16:22:16.107Z,28.37
2022-08-26T16:27:47.494Z,28.37
2022-08-26T16:33:29.114Z,28.40
2022-08-26T16:38:50.723Z,28.38
2022-08-26T16:49:53.860Z,28.24
2022-08-26T16:55:25.359Z,28.17
2022-08-26T17:00:57.120Z,28.08
2022-08-26T17:06:28.998Z,27.96
2022-08-26T17:12:00.912Z,27.85
2022-08-26T17:17:32.498Z,27.76
2022-08-26T17:23:04.248Z,27.68
2022-08-26T17:28:35.392Z,27.59
2022-08-26T17:34:06.822Z,27.48
2022-08-26T17:39:38.219Z,27.38
2022-08-26T17:45:09.861Z,27.25
2022-08-26T17:50:41.548Z,27.12
2022-08-26T17:56:13.282Z,27.02
2022-08-26T18:01:45.115Z,26.90
2022-08-26T18:07:16.945Z,26.81
2022-08-26T18:12:48.828Z,26.69
2022-08-26T18:19:52.435Z,25.74
2022-08-26T18:25:24.291Z,25.86
2022-08-26T18:30:57.414Z,25.84
2022-08-26T18:36:29.480Z,25.84
2022-08-26T19:18:31.864Z,18.57
2022-08-26T19:29:39.088Z,18.71
2022-08-26T19:35:11.976Z,18.72
2022-08-26T19:40:44.281Z,18.68
2022-08-26T19:46:16.342Z,18.64
2022-08-26T19:51:48.167Z,18.58
2022-08-26T19:57:20.010Z,18.49
2022-08-26T20:02:51.618Z,18.42
2022-08-26T20:08:23.667Z,18.38
2022-08-26T20:13:55.430Z,18.35
2022-08-26T20:19:27.296Z,18.31
2022-08-26T20:24:58.771Z,18.26
2022-08-26T20:30:30.638Z,18.22
2022-08-26T20:36:02.611Z,18.20
2022-08-26T20:41:33.960Z,18.15
2022-08-26T20:47:05.506Z,18.08
2022-08-26T20:52:37.291Z,18.02
2022-08-26T20:58:09.146Z,17.97
2022-08-26T21:03:40.878Z,17.96
2022-08-26T21:09:12.598Z,17.98
2022-08-26T21:14:48.953Z,18.02
2022-08-26T21:20:16.658Z,18.05
2022-08-26T21:25:48.792Z,18.03
2022-08-26T21:31:20.648Z,17.99
2022-08-26T21:36:52.229Z,17.96
2022-08-26T21:42:24.067Z,17.93
2022-08-26T21:47:55.768Z,17.94
2022-08-26T21:53:27.750Z,17.96
2022-08-26T21:58:59.496Z,18.03
2022-08-26T22:04:31.334Z,18.10
2022-08-26T22:10:03.291Z,18.18
2022-08-26T22:15:35.324Z,18.25
2022-08-26T22:21:07.441Z,18.34
2022-08-26T22:26:39.404Z,18.44
2022-08-26T22:32:11.329Z,18.56
2022-08-26T22:37:43.185Z,18.68
2022-08-26T22:43:15.009Z,18.79
2022-08-26T22:48:46.859Z,18.89
2022-08-26T22:54:18.818Z,18.97
2022-08-26T22:59:50.619Z,19.03
2022-08-26T23:10:53.787Z,19.15
2022-08-26T23:16:25.749Z,19.15
2022-08-26T23:21:57.888Z,19.10
2022-08-26T23:26:33.347Z,18.58
2022-08-26T23:32:04.082Z,18.73
2022-08-26T23:37:34.959Z,18.74
2022-08-26T23:43:06.948Z,18.69
2022-08-26T23:48:38.712Z,18.61
2022-08-26T23:54:10.526Z,18.56
2022-08-26T23:59:42.118Z,18.53
